createdAt,value
2024-04-10T00:00:04.311Z,27.82
2024-04-10T00:01:04.417Z,27.84
2024-04-10T00:02:04.344Z,27.80
2024-04-10T00:03:04.304Z,27.82
2024-04-10T00:04:04.359Z,27.82
2024-04-10T00:05:04.547Z,27.81
2024-04-10T00:06:04.359Z,27.80
2024-04-10T00:07:04.309Z,27.81
2024-04-10T00:08:04.300Z,27.80
2024-04-10T00:09:04.280Z,27.80
2024-04-10T00:10:04.382Z,27.80
2024-04-10T00:11:04.417Z,27.80
2024-04-10T00:12:04.581Z,27.80
2024-04-10T00:13:04.313Z,27.78
2024-04-10T00:14:04.276Z,27.77
2024-04-10T00:15:04.247Z,27.78
2024-04-10T00:16:04.264Z,27.78
2024-04-10T00:17:04.281Z,27.78
2024-04-10T00:18:04.358Z,27.78
2024-04-10T00:19:04.447Z,27.80
2024-04-10T00:20:04.328Z,27.80
2024-04-10T00:21:04.277Z,27.77
2024-04-10T00:22:04.288Z,27.78
2024-04-10T00:23:04.300Z,27.78
2024-04-10T00:24:04.252Z,27.78
2024-04-10T00:25:04.252Z,27.77
2024-04-10T00:26:04.359Z,27.75
2024-04-10T00:27:04.249Z,27.72
2024-04-10T00:28:04.240Z,27.75
2024-04-10T00:29:04.275Z,27.75
2024-04-10T00:30:04.226Z,27.77
2024-04-10T00:31:04.248Z,27.74
2024-04-10T00:32:04.303Z,27.72
2024-04-10T00:33:04.331Z,27.72
2024-04-10T00:34:04.269Z,27.74
2024-04-10T00:35:04.245Z,27.72
2024-04-10T00:36:04.242Z,27.72
2024-04-10T00:37:04.219Z,27.71
2024-04-10T00:38:04.307Z,27.71
2024-04-10T00:39:04.227Z,27.71
2024-04-10T00:40:04.198Z,27.71
2024-04-10T00:41:04.450Z,27.68
2024-04-10T00:42:04.195Z,27.68
2024-04-10T00:43:04.200Z,27.67
2024-04-10T00:44:04.271Z,27.67
2024-04-10T00:45:04.179Z,27.68
2024-04-10T00:46:04.212Z,27.65
2024-04-10T00:47:04.272Z,27.67
2024-04-10T00:48:04.288Z,27.64
2024-04-10T00:49:04.279Z,27.62
2024-04-10T00:50:04.203Z,27.65
2024-04-10T00:51:04.199Z,27.65
2024-04-10T00:52:04.210Z,27.65
2024-04-10T00:53:04.228Z,27.65
2024-04-10T00:54:04.263Z,27.64
2024-04-10T00:55:04.258Z,27.62
2024-04-10T00:56:04.310Z,27.62
2024-04-10T00:57:04.290Z,27.64
2024-04-10T00:58:04.314Z,27.62
2024-04-10T00:59:04.352Z,27.65
2024-04-10T01:00:04.354Z,27.62
2024-04-10T01:01:04.448Z,27.62
2024-04-10T01:02:04.398Z,27.62
2024-04-10T01:03:04.363Z,27.62
2024-04-10T01:04:04.377Z,27.60
2024-04-10T01:05:04.519Z,27.61
2024-04-10T01:06:04.359Z,27.61
2024-04-10T01:07:04.349Z,27.60
2024-04-10T01:08:04.415Z,27.61
2024-04-10T01:09:04.342Z,27.58
2024-04-10T01:10:04.350Z,27.58
2024-04-10T01:11:04.489Z,27.60
2024-04-10T01:12:04.452Z,27.58
2024-04-10T01:13:04.369Z,27.58
2024-04-10T01:14:04.431Z,27.61
2024-04-10T01:15:04.371Z,27.58
2024-04-10T01:16:04.454Z,27.58
2024-04-10T01:17:04.540Z,27.60
2024-04-10T01:18:04.597Z,27.61
2024-04-10T01:19:04.340Z,27.61
2024-04-10T01:20:04.456Z,27.60
2024-04-10T01:21:04.359Z,27.58
2024-04-10T01:22:04.339Z,27.60
2024-04-10T01:23:04.364Z,27.58
2024-04-10T01:24:04.323Z,27.62
2024-04-10T01:25:04.310Z,27.61
2024-04-10T01:26:04.388Z,27.60
2024-04-10T01:27:04.312Z,27.60
2024-04-10T01:28:04.312Z,27.60
2024-04-10T01:29:04.337Z,27.61
2024-04-10T01:30:04.304Z,27.60
2024-04-10T01:31:04.317Z,27.62
2024-04-10T01:32:04.340Z,27.60
2024-04-10T01:33:04.440Z,27.61
2024-04-10T01:34:04.454Z,27.60
2024-04-10T01:35:04.317Z,27.60
2024-04-10T01:36:04.336Z,27.60
2024-04-10T01:37:04.408Z,27.58
2024-04-10T01:38:04.355Z,27.58
2024-04-10T01:39:04.320Z,27.58
2024-04-10T01:40:04.333Z,27.58
2024-04-10T01:41:04.406Z,27.60
2024-04-10T01:42:04.328Z,27.58
2024-04-10T01:43:04.335Z,27.58
2024-04-10T01:44:04.403Z,27.55
2024-04-10T01:45:04.351Z,27.58
2024-04-10T01:46:04.395Z,27.57
2024-04-10T01:47:04.413Z,27.55
2024-04-10T01:48:04.488Z,27.57
2024-04-10T01:49:04.434Z,27.55
2024-04-10T01:50:04.395Z,27.55
2024-04-10T01:51:04.344Z,27.57
2024-04-10T01:52:04.349Z,27.58
2024-04-10T01:53:04.385Z,27.57
2024-04-10T01:54:04.335Z,27.58
2024-04-10T01:55:04.392Z,27.57
2024-04-10T01:56:04.410Z,27.58
2024-04-10T01:57:04.400Z,27.57
2024-04-10T01:58:04.397Z,27.58
2024-04-10T01:59:04.479Z,27.57
2024-04-10T02:00:04.477Z,27.57
2024-04-10T02:01:04.638Z,27.60
2024-04-10T02:02:04.529Z,27.58
2024-04-10T02:03:04.528Z,27.58
2024-04-10T02:04:04.561Z,27.55
2024-04-10T02:05:04.605Z,27.55
2024-04-10T02:06:04.620Z,27.57
2024-04-10T02:07:04.644Z,27.58
2024-04-10T02:08:04.686Z,27.54
2024-04-10T02:09:04.672Z,27.57
2024-04-10T02:10:04.677Z,27.54
2024-04-10T02:11:04.772Z,27.55
2024-04-10T02:12:04.746Z,27.54
2024-04-10T02:13:04.667Z,27.55
2024-04-10T02:14:04.758Z,27.53
2024-04-10T02:15:04.737Z,27.54
2024-04-10T02:16:04.726Z,27.55
2024-04-10T02:17:04.731Z,27.54
2024-04-10T02:18:04.855Z,27.51
2024-04-10T02:19:04.667Z,27.51
2024-04-10T02:20:04.734Z,27.51
2024-04-10T02:21:05.380Z,27.51
2024-04-10T02:22:04.722Z,27.48
2024-04-10T02:23:04.742Z,27.51
2024-04-10T02:24:04.717Z,27.53
2024-04-10T02:25:04.718Z,27.48
2024-04-10T02:26:04.778Z,27.53
2024-04-10T02:27:04.727Z,27.50
2024-04-10T02:28:04.719Z,27.48
2024-04-10T02:29:04.743Z,27.50
2024-04-10T02:30:04.720Z,27.48
2024-04-10T02:31:04.763Z,27.48
2024-04-10T02:32:04.804Z,27.48
2024-04-10T02:33:04.937Z,27.47
2024-04-10T02:34:05.028Z,27.46
2024-04-10T02:35:04.931Z,27.48
2024-04-10T02:36:04.941Z,27.48
2024-04-10T02:37:04.984Z,27.48
2024-04-10T02:38:05.022Z,27.47
2024-04-10T02:39:05.028Z,27.46
2024-04-10T02:40:05.108Z,27.46
2024-04-10T02:41:05.169Z,27.47
2024-04-10T02:42:05.195Z,27.46
2024-04-10T02:43:05.216Z,27.46
2024-04-10T02:44:05.316Z,27.47
2024-04-10T02:45:05.274Z,27.43
2024-04-10T02:46:05.354Z,27.44
2024-04-10T02:47:05.422Z,27.44
2024-04-10T02:48:05.426Z,27.41
2024-04-10T02:49:05.444Z,27.41
2024-04-10T02:50:05.555Z,27.40
2024-04-10T02:51:05.501Z,27.41
2024-04-10T02:52:05.529Z,27.43
2024-04-10T02:53:05.553Z,27.41
2024-04-10T02:54:05.524Z,27.41
2024-04-10T02:55:05.573Z,27.40
2024-04-10T02:56:05.869Z,27.40
2024-04-10T02:57:05.567Z,27.40
2024-04-10T02:58:05.601Z,27.40
2024-04-10T02:59:05.572Z,27.41
2024-04-10T03:00:05.570Z,27.41
2024-04-10T03:01:05.835Z,27.40
2024-04-10T03:02:05.621Z,27.40
2024-04-10T03:03:05.811Z,27.41
2024-04-10T03:04:05.714Z,27.41
2024-04-10T03:05:05.673Z,27.43
2024-04-10T03:06:05.684Z,27.41
2024-04-10T03:07:05.651Z,27.41
2024-04-10T03:08:05.739Z,27.41
2024-04-10T03:09:05.675Z,27.40
2024-04-10T03:10:05.717Z,27.41
2024-04-10T03:11:05.852Z,27.40
2024-04-10T03:12:05.850Z,27.38
2024-04-10T03:13:05.815Z,27.40
2024-04-10T03:14:05.901Z,27.40
2024-04-10T03:15:05.969Z,27.40
2024-04-10T03:16:05.956Z,27.38
2024-04-10T03:17:06.127Z,27.37
2024-04-10T03:18:06.125Z,27.34
2024-04-10T03:19:06.083Z,27.34
2024-04-10T03:20:06.654Z,27.34
2024-04-10T03:21:06.197Z,27.33
2024-04-10T03:22:06.176Z,27.27
2024-04-10T03:23:06.206Z,27.27
2024-04-10T03:24:06.186Z,27.23
2024-04-10T03:25:06.215Z,27.22
2024-04-10T03:26:06.279Z,27.20
2024-04-10T03:27:06.227Z,27.14
2024-04-10T03:28:06.242Z,27.14
2024-04-10T03:29:06.273Z,27.11
2024-04-10T03:30:06.234Z,27.07
2024-04-10T03:31:06.295Z,27.07
2024-04-10T03:32:06.352Z,27.06
2024-04-10T03:33:06.434Z,27.05
2024-04-10T03:34:06.513Z,27.00
2024-04-10T03:35:06.528Z,27.00
2024-04-10T03:36:06.570Z,26.99
2024-04-10T03:37:06.624Z,26.95
2024-04-10T03:38:06.772Z,26.95
2024-04-10T03:39:06.816Z,26.95
2024-04-10T03:40:06.883Z,26.88
2024-04-10T03:41:07.185Z,26.89
2024-04-10T03:42:07.017Z,26.89
2024-04-10T03:43:07.162Z,26.86
2024-04-10T03:44:07.228Z,26.85
2024-04-10T03:45:07.288Z,26.83
2024-04-10T03:46:07.370Z,26.82
2024-04-10T03:47:07.521Z,26.79
2024-04-10T03:48:07.749Z,26.77
2024-04-10T03:49:07.822Z,26.74
2024-04-10T03:50:07.692Z,26.74
2024-04-10T03:51:07.741Z,26.74
2024-04-10T03:52:07.753Z,26.74
2024-04-10T03:53:07.816Z,26.72
2024-04-10T03:54:07.863Z,26.72
2024-04-10T03:55:07.919Z,26.71
2024-04-10T03:56:07.981Z,26.68
2024-04-10T03:57:07.983Z,26.67
2024-04-10T03:58:08.005Z,26.67
2024-04-10T03:59:08.124Z,26.64
2024-04-10T04:00:08.099Z,26.61
2024-04-10T04:01:08.196Z,26.62
2024-04-10T04:02:08.237Z,26.62
2024-04-10T04:03:08.347Z,26.61
2024-04-10T04:04:08.261Z,26.62
2024-04-10T04:05:08.311Z,26.59
2024-04-10T04:06:08.361Z,26.64
2024-04-10T04:07:08.404Z,26.65
2024-04-10T04:08:08.471Z,26.67
2024-04-10T04:09:08.530Z,26.70
2024-04-10T04:10:08.615Z,26.71
2024-04-10T04:11:08.975Z,26.71
2024-04-10T04:12:09.036Z,26.72
2024-04-10T04:13:08.833Z,26.71
2024-04-10T04:14:08.943Z,26.74
2024-04-10T04:15:08.992Z,26.78
2024-04-10T04:16:09.222Z,26.75
2024-04-10T04:17:09.179Z,26.78
2024-04-10T04:18:09.315Z,26.81
2024-04-10T04:19:09.309Z,26.81
2024-04-10T04:20:09.427Z,26.81
2024-04-10T04:21:09.470Z,26.82
2024-04-10T04:22:09.563Z,26.85
2024-04-10T04:23:09.696Z,26.83
2024-04-10T04:24:09.722Z,26.83
2024-04-10T04:25:09.736Z,26.86
2024-04-10T04:26:09.791Z,26.85
2024-04-10T04:27:09.755Z,26.88
2024-04-10T04:28:09.775Z,26.86
2024-04-10T04:29:09.822Z,26.86
2024-04-10T04:30:09.831Z,26.88
2024-04-10T04:31:09.835Z,26.85
2024-04-10T04:32:09.938Z,26.86
2024-04-10T04:33:10.033Z,26.86
2024-04-10T04:34:10.057Z,26.85
2024-04-10T04:35:10.123Z,26.83
2024-04-10T04:36:10.116Z,26.82
2024-04-10T04:37:10.127Z,26.79
2024-04-10T04:38:10.241Z,26.77
2024-04-10T04:39:10.163Z,26.75
2024-04-10T04:40:10.217Z,26.77
2024-04-10T04:41:10.244Z,26.75
2024-04-10T04:42:10.236Z,26.70
2024-04-10T04:43:10.404Z,26.67
2024-04-10T04:44:12.708Z,26.65
2024-04-10T04:45:10.291Z,26.65
2024-04-10T04:46:10.330Z,26.59
2024-04-10T04:47:17.778Z,26.54
2024-04-10T04:48:17.948Z,26.51
2024-04-10T04:49:17.605Z,26.51
2024-04-10T04:50:17.672Z,26.48
2024-04-10T04:51:17.629Z,26.48
2024-04-10T04:52:17.608Z,26.45
2024-04-10T04:53:17.638Z,26.45
2024-04-10T04:54:17.590Z,26.43
2024-04-10T04:55:17.575Z,26.43
2024-04-10T04:56:17.642Z,26.38
2024-04-10T04:57:17.597Z,26.40
2024-04-10T04:58:17.586Z,26.38
2024-04-10T04:59:17.650Z,26.34
2024-04-10T05:00:17.577Z,26.31
2024-04-10T05:01:17.638Z,26.28
2024-04-10T05:02:17.673Z,26.28
2024-04-10T05:03:17.700Z,26.24
2024-04-10T05:04:17.626Z,26.26
2024-04-10T05:05:17.621Z,26.27
2024-04-10T05:06:19.561Z,26.24
2024-04-10T05:07:17.540Z,26.23
2024-04-10T05:08:17.588Z,26.23
2024-04-10T05:09:17.546Z,26.20
2024-04-10T05:10:17.558Z,26.20
2024-04-10T05:11:17.569Z,26.17
2024-04-10T05:12:17.575Z,26.17
2024-04-10T05:13:17.507Z,26.14
2024-04-10T05:14:17.537Z,26.19
2024-04-10T05:15:17.483Z,26.16
2024-04-10T05:16:17.588Z,26.12
2024-04-10T05:17:17.589Z,26.13
2024-04-10T05:18:17.533Z,26.12
2024-04-10T05:19:17.467Z,26.10
2024-04-10T05:20:18.623Z,26.12
2024-04-10T05:21:17.507Z,26.08
2024-04-10T05:22:17.443Z,26.06
2024-04-10T05:23:17.504Z,26.04
2024-04-10T05:24:17.436Z,26.06
2024-04-10T05:25:17.435Z,26.03
2024-04-10T05:26:17.585Z,26.03
2024-04-10T05:27:17.419Z,26.01
2024-04-10T05:28:17.542Z,26.00
2024-04-10T05:29:17.454Z,26.01
2024-04-10T05:30:17.450Z,26.03
2024-04-10T05:31:17.439Z,26.00
2024-04-10T05:32:17.556Z,26.00
2024-04-10T05:33:17.515Z,25.97
2024-04-10T05:34:17.567Z,25.99
2024-04-10T05:35:17.511Z,25.99
2024-04-10T05:36:17.463Z,25.99
2024-04-10T05:37:17.434Z,26.00
2024-04-10T05:38:17.493Z,25.99
2024-04-10T05:39:17.441Z,25.96
2024-04-10T05:40:17.456Z,25.95
2024-04-10T05:41:17.900Z,25.97
2024-04-10T05:42:17.441Z,25.96
2024-04-10T05:43:17.513Z,25.95
2024-04-10T05:44:17.503Z,25.95
2024-04-10T05:45:18.243Z,25.93
2024-04-10T05:46:17.505Z,25.95
2024-04-10T05:47:17.558Z,25.96
2024-04-10T05:48:17.554Z,25.95
2024-04-10T05:49:17.539Z,25.93
2024-04-10T05:50:17.539Z,25.90
2024-04-10T05:51:17.483Z,25.92
2024-04-10T05:52:17.518Z,25.90
2024-04-10T05:53:17.517Z,25.89
2024-04-10T05:54:17.501Z,25.93
2024-04-10T05:55:17.486Z,25.92
2024-04-10T05:56:17.537Z,25.90
2024-04-10T05:57:17.662Z,25.95
2024-04-10T05:58:17.508Z,25.96
2024-04-10T05:59:17.596Z,25.96
2024-04-10T06:00:17.509Z,25.95
2024-04-10T06:01:17.642Z,25.97
2024-04-10T06:02:17.611Z,26.00
2024-04-10T06:03:17.678Z,26.00
2024-04-10T06:04:17.676Z,26.01
2024-04-10T06:05:17.691Z,26.04
2024-04-10T06:06:17.712Z,26.04
2024-04-10T06:07:17.615Z,26.06
2024-04-10T06:08:17.823Z,26.06
2024-04-10T06:09:18.304Z,26.07
2024-04-10T06:10:17.645Z,26.06
2024-04-10T06:11:17.786Z,26.12
2024-04-10T06:12:17.770Z,26.10
2024-04-10T06:13:17.652Z,26.13
2024-04-10T06:14:17.800Z,26.12
2024-04-10T06:15:17.646Z,26.14
2024-04-10T06:16:17.694Z,26.14
2024-04-10T06:17:17.744Z,26.19
2024-04-10T06:18:17.747Z,26.17
2024-04-10T06:19:17.659Z,26.19
2024-04-10T06:20:17.733Z,26.21
2024-04-10T06:21:17.697Z,26.19
2024-04-10T06:22:21.001Z,26.21
2024-04-10T06:23:17.721Z,26.21
2024-04-10T06:24:17.706Z,26.20
2024-04-10T06:25:18.262Z,26.23
2024-04-10T06:26:17.770Z,26.21
2024-04-10T06:27:17.740Z,26.24
2024-04-10T06:28:17.693Z,26.23
2024-04-10T06:29:17.750Z,26.24
2024-04-10T06:30:17.785Z,26.26
2024-04-10T06:31:17.679Z,26.24
2024-04-10T06:32:18.435Z,26.26
2024-04-10T06:33:17.767Z,26.26
2024-04-10T06:34:17.782Z,26.27
2024-04-10T06:35:17.741Z,26.27
2024-04-10T06:36:17.679Z,26.28
2024-04-10T06:37:18.262Z,26.28
2024-04-10T06:38:17.745Z,26.28
2024-04-10T06:39:17.671Z,26.30
2024-04-10T06:40:17.666Z,26.31
2024-04-10T06:41:17.734Z,26.30
2024-04-10T06:42:17.664Z,26.33
2024-04-10T06:43:17.700Z,26.34
2024-04-10T06:44:17.706Z,26.31
2024-04-10T06:45:17.720Z,26.34
2024-04-10T06:46:17.680Z,26.34
2024-04-10T06:47:17.761Z,26.34
2024-04-10T06:48:17.842Z,26.33
2024-04-10T06:49:17.878Z,26.33
2024-04-10T06:50:17.670Z,26.33
2024-04-10T06:51:17.699Z,26.34
2024-04-10T06:52:17.654Z,26.34
2024-04-10T06:53:17.724Z,26.35
2024-04-10T06:54:21.004Z,26.37
2024-04-10T06:55:17.656Z,26.35
2024-04-10T06:56:17.709Z,26.37
2024-04-10T06:57:17.633Z,26.38
2024-04-10T06:58:17.624Z,26.35
2024-04-10T06:59:17.666Z,26.35
2024-04-10T07:00:17.645Z,26.35
2024-04-10T07:01:17.648Z,26.35
2024-04-10T07:02:17.671Z,26.35
2024-04-10T07:03:17.629Z,26.38
2024-04-10T07:04:17.677Z,26.37
2024-04-10T07:05:17.717Z,26.35
2024-04-10T07:06:17.642Z,26.37
2024-04-10T07:07:17.648Z,26.35
2024-04-10T07:08:17.640Z,26.35
2024-04-10T07:09:17.573Z,26.35
2024-04-10T07:10:17.589Z,26.37
2024-04-10T07:11:20.592Z,26.35
2024-04-10T07:12:17.734Z,26.34
2024-04-10T07:13:17.618Z,26.37
2024-04-10T07:14:17.619Z,26.38
2024-04-10T07:15:17.563Z,26.38
2024-04-10T07:16:17.690Z,26.34
2024-04-10T07:17:17.665Z,26.37
2024-04-10T07:18:17.683Z,26.35
2024-04-10T07:19:17.549Z,26.35
2024-04-10T07:20:17.608Z,26.37
2024-04-10T07:21:17.564Z,26.37
2024-04-10T07:22:17.562Z,26.38
2024-04-10T07:23:17.633Z,26.40
2024-04-10T07:24:17.503Z,26.40
2024-04-10T07:25:17.516Z,26.38
2024-04-10T07:26:17.660Z,26.41
2024-04-10T07:27:17.507Z,26.40
2024-04-10T07:28:17.512Z,26.40
2024-04-10T07:29:17.617Z,26.38
2024-04-10T07:30:17.583Z,26.40
2024-04-10T07:31:17.518Z,26.35
2024-04-10T07:32:17.583Z,26.38
2024-04-10T07:33:17.581Z,26.41
2024-04-10T07:34:17.655Z,26.43
2024-04-10T07:35:17.540Z,26.41
2024-04-10T07:36:17.503Z,26.38
2024-04-10T07:37:17.491Z,26.41
2024-04-10T07:38:17.535Z,26.40
2024-04-10T07:39:18.291Z,26.44
2024-04-10T07:40:17.499Z,26.41
2024-04-10T07:41:17.527Z,26.47
2024-04-10T07:42:17.493Z,26.45
2024-04-10T07:43:17.484Z,26.45
2024-04-10T07:44:17.516Z,26.44
2024-04-10T07:45:17.478Z,26.44
2024-04-10T07:46:17.613Z,26.44
2024-04-10T07:47:17.652Z,26.44
2024-04-10T07:48:17.622Z,26.45
2024-04-10T07:49:17.612Z,26.47
2024-04-10T07:50:17.573Z,26.45
2024-04-10T07:51:17.691Z,26.45
2024-04-10T07:52:17.498Z,26.43
2024-04-10T07:53:17.564Z,26.37
2024-04-10T07:54:17.530Z,26.40
2024-04-10T07:55:17.520Z,26.38
2024-04-10T07:56:17.566Z,26.40
2024-04-10T07:57:17.589Z,26.41
2024-04-10T07:58:17.672Z,26.44
2024-04-10T07:59:17.558Z,26.43
2024-04-10T08:00:17.634Z,26.45
2024-04-10T08:01:17.670Z,26.48
2024-04-10T08:02:18.448Z,26.48
2024-04-10T08:03:17.613Z,26.48
2024-04-10T08:04:17.555Z,26.48
2024-04-10T08:05:17.589Z,26.52
2024-04-10T08:06:17.571Z,26.51
2024-04-10T08:07:17.532Z,26.54
2024-04-10T08:08:17.542Z,26.55
2024-04-10T08:09:17.534Z,26.56
2024-04-10T08:10:17.745Z,26.56
2024-04-10T08:11:17.658Z,26.58
2024-04-10T08:12:17.690Z,26.58
2024-04-10T08:13:17.609Z,26.61
2024-04-10T08:14:17.530Z,26.59
2024-04-10T08:15:17.541Z,26.58
2024-04-10T08:16:17.972Z,26.59
2024-04-10T08:17:17.785Z,26.64
2024-04-10T08:18:18.345Z,26.62
2024-04-10T08:19:17.769Z,26.64
2024-04-10T08:20:17.848Z,26.64
2024-04-10T08:21:17.914Z,26.64
2024-04-10T08:22:17.931Z,26.61
2024-04-10T08:23:17.935Z,26.62
2024-04-10T08:24:17.941Z,26.62
2024-04-10T08:25:18.001Z,26.61
2024-04-10T08:26:18.516Z,26.62
2024-04-10T08:27:17.949Z,26.62
2024-04-10T08:28:17.972Z,26.62
2024-04-10T08:29:18.009Z,26.64
2024-04-10T08:30:17.994Z,26.65
2024-04-10T08:31:17.929Z,26.65
2024-04-10T08:32:18.003Z,26.62
2024-04-10T08:33:18.998Z,26.64
2024-04-10T08:34:18.363Z,26.67
2024-04-10T08:35:18.130Z,26.65
2024-04-10T08:36:18.280Z,26.65
2024-04-10T08:37:18.053Z,26.67
2024-04-10T08:38:18.176Z,26.67
2024-04-10T08:39:18.187Z,26.65
2024-04-10T08:40:18.275Z,26.65
2024-04-10T08:41:19.656Z,26.65
2024-04-10T08:42:18.172Z,26.65
2024-04-10T08:43:18.099Z,26.67
2024-04-10T08:44:18.102Z,26.67
2024-04-10T08:45:18.119Z,26.65
2024-04-10T08:46:18.123Z,26.65
2024-04-10T08:47:18.205Z,26.67
2024-04-10T08:48:18.575Z,26.65
2024-04-10T08:49:18.155Z,26.68
2024-04-10T08:50:18.408Z,26.65
2024-04-10T08:51:18.176Z,26.68
2024-04-10T08:52:18.146Z,26.71
2024-04-10T08:53:18.195Z,26.70
2024-04-10T08:54:18.269Z,26.70
2024-04-10T08:55:18.318Z,26.70
2024-04-10T08:56:18.262Z,26.71
2024-04-10T08:57:18.841Z,26.70
2024-04-10T08:58:18.343Z,26.70
2024-04-10T08:59:18.402Z,26.71
2024-04-10T09:00:18.480Z,26.72
2024-04-10T09:01:18.559Z,26.71
2024-04-10T09:02:18.534Z,26.74
2024-04-10T09:03:18.620Z,26.74
2024-04-10T09:04:18.605Z,26.74
2024-04-10T09:05:18.643Z,26.74
2024-04-10T09:06:18.615Z,26.75
2024-04-10T09:07:18.574Z,26.74
2024-04-10T09:08:18.508Z,26.77
2024-04-10T09:09:18.550Z,26.77
2024-04-10T09:10:18.497Z,26.78
2024-04-10T09:11:18.526Z,26.78
2024-04-10T09:12:19.333Z,26.78
2024-04-10T09:13:18.555Z,26.79
2024-04-10T09:14:18.600Z,26.79
2024-04-10T09:15:18.520Z,26.79
2024-04-10T09:16:18.576Z,26.78
2024-04-10T09:17:18.632Z,26.79
2024-04-10T09:18:18.505Z,26.79
2024-04-10T09:19:18.654Z,26.83
2024-04-10T09:20:18.571Z,26.85
2024-04-10T09:21:18.596Z,26.85
2024-04-10T09:22:21.598Z,26.88
2024-04-10T09:23:18.573Z,26.86
2024-04-10T09:24:18.517Z,26.90
2024-04-10T09:25:18.485Z,26.89
2024-04-10T09:26:18.521Z,26.89
2024-04-10T09:27:18.457Z,26.90
2024-04-10T09:28:18.466Z,26.89
2024-04-10T09:29:18.470Z,26.95
2024-04-10T09:30:18.524Z,26.93
2024-04-10T09:31:18.427Z,26.93
2024-04-10T09:32:18.453Z,26.96
2024-04-10T09:33:18.486Z,26.98
2024-04-10T09:34:18.520Z,26.98
2024-04-10T09:35:18.373Z,26.96
2024-04-10T09:36:18.368Z,26.96
2024-04-10T09:37:18.342Z,26.99
2024-04-10T09:38:18.625Z,27.00
2024-04-10T09:39:18.305Z,27.02
2024-04-10T09:40:18.273Z,27.03
2024-04-10T09:41:18.365Z,27.06
2024-04-10T09:42:18.240Z,27.05
2024-04-10T09:43:18.212Z,27.09
2024-04-10T09:44:18.246Z,27.09
2024-04-10T09:45:18.223Z,27.14
2024-04-10T09:46:18.514Z,27.13
2024-04-10T09:47:18.294Z,27.16
2024-04-10T09:48:18.272Z,27.19
2024-04-10T09:49:18.166Z,27.20
2024-04-10T09:50:18.156Z,27.20
2024-04-10T09:51:18.209Z,27.23
2024-04-10T09:52:18.089Z,27.25
2024-04-10T09:53:18.167Z,27.30
2024-04-10T09:54:18.123Z,27.32
2024-04-10T09:55:18.162Z,27.34
2024-04-10T09:56:18.215Z,27.34
2024-04-10T09:57:18.168Z,27.37
2024-04-10T09:58:18.219Z,27.38
2024-04-10T09:59:18.297Z,27.41
2024-04-10T10:00:18.218Z,27.41
2024-04-10T10:01:18.290Z,27.46
2024-04-10T10:02:19.517Z,27.46
2024-04-10T10:03:18.433Z,27.48
2024-04-10T10:04:18.313Z,27.47
2024-04-10T10:05:18.316Z,27.50
2024-04-10T10:06:18.341Z,27.54
2024-04-10T10:07:18.283Z,27.55
2024-04-10T10:08:18.315Z,27.55
2024-04-10T10:09:18.300Z,27.58
2024-04-10T10:10:18.317Z,27.61
2024-04-10T10:11:18.411Z,27.61
2024-04-10T10:12:18.373Z,27.62
2024-04-10T10:13:18.306Z,27.67
2024-04-10T10:14:18.360Z,27.69
2024-04-10T10:15:18.413Z,27.69
2024-04-10T10:16:18.325Z,27.74
2024-04-10T10:17:18.561Z,27.72
2024-04-10T10:18:21.570Z,27.75
2024-04-10T10:19:19.448Z,27.78
2024-04-10T10:20:18.301Z,27.77
2024-04-10T10:21:18.190Z,27.81
2024-04-10T10:22:18.178Z,27.78
2024-04-10T10:23:18.241Z,27.81
2024-04-10T10:24:18.212Z,27.81
2024-04-10T10:25:18.221Z,27.82
2024-04-10T10:26:19.247Z,27.84
2024-04-10T10:27:18.092Z,27.85
2024-04-10T10:28:19.834Z,27.85
2024-04-10T10:29:20.543Z,27.85
2024-04-10T10:30:18.688Z,27.88
2024-04-10T10:31:18.892Z,27.89
2024-04-10T10:32:17.957Z,27.85
2024-04-10T10:33:18.017Z,27.87
2024-04-10T10:34:18.135Z,27.89
2024-04-10T10:35:20.147Z,27.89
2024-04-10T10:36:17.904Z,27.89
2024-04-10T10:37:18.577Z,27.92
2024-04-10T10:38:17.913Z,27.92
2024-04-10T10:39:17.874Z,27.89
2024-04-10T10:40:17.774Z,27.91
2024-04-10T10:41:19.289Z,27.92
2024-04-10T10:42:17.774Z,27.93
2024-04-10T10:43:18.705Z,27.93
2024-04-10T10:44:18.351Z,27.95
2024-04-10T10:45:17.905Z,27.95
2024-04-10T10:46:17.742Z,27.96
2024-04-10T10:47:17.856Z,27.96
2024-04-10T10:48:17.940Z,27.98
2024-04-10T10:49:17.749Z,27.99
2024-04-10T10:50:17.742Z,27.99
2024-04-10T10:51:17.714Z,28.02
2024-04-10T10:52:17.692Z,28.01
2024-04-10T10:53:17.725Z,28.02
2024-04-10T10:54:17.697Z,28.03
2024-04-10T10:55:17.739Z,28.03
2024-04-10T10:56:17.651Z,28.03
2024-04-10T10:57:17.664Z,28.08
2024-04-10T10:58:17.638Z,28.08
2024-04-10T10:59:17.690Z,28.08
2024-04-10T11:00:17.610Z,28.09
2024-04-10T11:01:17.620Z,28.09
2024-04-10T11:02:17.670Z,28.08
2024-04-10T11:04:17.754Z,28.12
2024-04-10T11:05:17.769Z,28.13
2024-04-10T11:06:17.663Z,28.15
2024-04-10T11:07:17.518Z,28.13
2024-04-10T11:08:17.533Z,28.16
2024-04-10T11:09:17.500Z,28.16
2024-04-10T11:10:17.454Z,28.16
2024-04-10T11:11:17.691Z,28.18
2024-04-10T11:12:17.597Z,28.16
2024-04-10T11:13:17.379Z,28.16
2024-04-10T11:14:17.407Z,28.19
2024-04-10T11:15:17.398Z,28.18
2024-04-10T11:16:17.321Z,28.18
2024-04-10T11:17:17.333Z,28.18
2024-04-10T11:18:17.472Z,28.19
2024-04-10T11:19:17.209Z,28.18
2024-04-10T11:20:17.195Z,28.18
2024-04-10T11:21:17.882Z,28.15
2024-04-10T11:22:17.158Z,28.19
2024-04-10T11:23:17.159Z,28.13
2024-04-10T11:24:17.227Z,28.18
2024-04-10T11:25:17.110Z,28.16
2024-04-10T11:26:17.108Z,28.16
2024-04-10T11:27:17.395Z,28.15
2024-04-10T11:28:16.987Z,28.15
2024-04-10T11:29:17.036Z,28.15
2024-04-10T11:30:16.962Z,28.19
2024-04-10T11:31:16.943Z,28.16
2024-04-10T11:32:17.113Z,28.15
2024-04-10T11:33:17.022Z,28.15
2024-04-10T11:34:17.078Z,28.16
2024-04-10T11:35:16.956Z,28.13
2024-04-10T11:36:16.910Z,28.15
2024-04-10T11:37:16.786Z,28.15
2024-04-10T11:38:16.823Z,28.16
2024-04-10T11:39:16.742Z,28.13
2024-04-10T11:40:16.702Z,28.16
2024-04-10T11:41:16.771Z,28.15
2024-04-10T11:42:16.739Z,28.16
2024-04-10T11:43:16.656Z,28.15
2024-04-10T11:44:16.645Z,28.18
2024-04-10T11:45:16.700Z,28.15
2024-04-10T11:46:16.572Z,28.16
2024-04-10T11:47:16.640Z,28.19
2024-04-10T11:48:16.700Z,28.19
2024-04-10T11:49:17.531Z,28.18
2024-04-10T11:50:16.568Z,28.15
2024-04-10T11:51:16.972Z,28.16
2024-04-10T11:52:16.415Z,28.16
2024-04-10T11:53:16.431Z,28.15
2024-04-10T11:54:16.402Z,28.15
2024-04-10T11:55:16.468Z,28.16
2024-04-10T11:56:16.446Z,28.18
2024-04-10T11:57:16.320Z,28.16
2024-04-10T11:58:16.889Z,28.19
2024-04-10T11:59:16.335Z,28.15
2024-04-10T12:00:16.251Z,28.19
2024-04-10T12:01:16.281Z,28.19
2024-04-10T12:02:16.208Z,28.19
2024-04-10T12:03:17.315Z,28.20
2024-04-10T12:04:16.156Z,28.22
2024-04-10T12:05:16.717Z,28.23
2024-04-10T12:06:16.171Z,28.24
2024-04-10T12:07:16.040Z,28.24
2024-04-10T12:08:16.037Z,28.26
2024-04-10T12:09:15.983Z,28.24
2024-04-10T12:10:16.041Z,28.22
2024-04-10T12:11:16.048Z,28.24
2024-04-10T12:12:15.956Z,28.26
2024-04-10T12:13:15.863Z,28.26
2024-04-10T12:14:15.885Z,28.24
2024-04-10T12:15:15.817Z,28.29
2024-04-10T12:16:15.773Z,28.26
2024-04-10T12:17:15.967Z,28.26
2024-04-10T12:18:16.670Z,28.26
2024-04-10T12:19:15.719Z,28.29
2024-04-10T12:20:15.732Z,28.27
2024-04-10T12:21:15.737Z,28.27
2024-04-10T12:22:15.720Z,28.26
2024-04-10T12:23:15.656Z,28.26
2024-04-10T12:24:15.685Z,28.26
2024-04-10T12:25:15.703Z,28.29
2024-04-10T12:26:15.741Z,28.26
2024-04-10T12:27:15.474Z,28.26
2024-04-10T12:28:15.418Z,28.26
2024-04-10T12:29:15.466Z,28.24
2024-04-10T12:30:15.374Z,28.26
2024-04-10T12:31:15.409Z,28.26
2024-04-10T12:32:15.353Z,28.24
2024-04-10T12:33:15.336Z,28.26
2024-04-10T12:34:15.428Z,28.24
2024-04-10T12:35:15.350Z,28.26
2024-04-10T12:36:15.262Z,28.26
2024-04-10T12:37:15.216Z,28.27
2024-04-10T12:38:15.188Z,28.29
2024-04-10T12:39:15.136Z,28.24
2024-04-10T12:40:15.150Z,28.26
2024-04-10T12:41:15.115Z,28.26
2024-04-10T12:42:15.040Z,28.26
2024-04-10T12:43:15.005Z,28.24
2024-04-10T12:44:14.983Z,28.26
2024-04-10T12:45:15.010Z,28.24
2024-04-10T12:46:14.950Z,28.24
2024-04-10T12:47:15.011Z,28.23
2024-04-10T12:48:14.965Z,28.22
2024-04-10T12:49:14.833Z,28.20
2024-04-10T12:50:14.857Z,28.20
2024-04-10T12:51:14.792Z,28.20
2024-04-10T12:52:14.763Z,28.20
2024-04-10T12:53:14.786Z,28.22